Terminal Aerodrome Forecast
Issued by NWS

Home | Current Version | Previous Version | Graphics & Text | Print | Product List | Glossary On
Versions: 1 2 3 4 5 6 7 8 9 10 11 12 13 14
000
FTUS43 KGRB 292324
TAFAUW
TAF
KAUW 292324Z 3000/3024 28014G24KT P6SM FEW060
     FM300300 25006KT P6SM SKC
     FM301500 28014G24KT P6SM SCT035
     FM301800 28012G21KT P6SM BKN040
     FM302000 28010G18KT P6SM BKN050=

USA.gov is the U.S. government's official web portal to all federal, state and local government web resources and services.